createdAt,value
2017-11-22T00:00:31.723Z,100435.26
2017-11-22T00:03:06.152Z,100428.38
2017-11-22T00:05:41.392Z,100426.70
2017-11-22T00:08:25.210Z,100435.69
2017-11-22T00:10:59.772Z,100431.33
2017-11-22T00:13:31.213Z,100430.06
2017-11-22T00:16:09.028Z,100428.33
2017-11-22T00:18:43.365Z,100426.86
2017-11-22T00:21:14.700Z,100412.34
2017-11-22T00:23:50.952Z,100418.39
2017-11-22T00:26:29.013Z,100421.45
2017-11-22T00:29:07.678Z,100419.69
2017-11-22T00:31:42.037Z,100419.56
2017-11-22T00:34:20.063Z,100421.75
2017-11-22T00:36:52.197Z,100419.85
2017-11-22T00:39:29.003Z,100422.31
2017-11-22T00:42:06.111Z,100419.75
2017-11-22T00:44:39.020Z,100423.52
2017-11-22T00:53:02.792Z,100413.30
2017-11-22T00:55:34.359Z,100417.16
2017-11-22T00:58:12.868Z,100416.62
2017-11-22T01:00:48.763Z,100420.88
2017-11-22T01:03:20.396Z,100412.31
2017-11-22T01:05:52.316Z,100417.42
2017-11-22T01:08:24.788Z,100415.70
2017-11-22T01:10:58.898Z,100418.67
2017-11-22T01:13:31.522Z,100415.33
2017-11-22T01:16:07.302Z,100416.59
2017-11-22T01:18:39.010Z,100412.23
2017-11-22T01:21:21.933Z,100412.55
2017-11-22T01:23:53.885Z,100411.94
2017-11-22T01:26:26.380Z,100413.22
2017-11-22T01:29:11.953Z,100414.98
2017-11-22T01:31:50.521Z,100413.91
2017-11-22T01:34:22.126Z,100414.75
2017-11-22T01:36:58.107Z,100421.06
2017-11-22T01:45:21.567Z,100426.67
2017-11-22T01:47:54.986Z,100416.19
2017-11-22T01:50:29.238Z,100410.50
2017-11-22T01:53:01.767Z,100403.27
2017-11-22T01:55:34.085Z,100406.94
2017-11-22T02:03:01.732Z,100402.38
2017-11-22T02:05:37.724Z,100412.38
2017-11-22T02:11:44.581Z,100405.64
2017-11-22T02:14:19.390Z,100394.44
2017-11-22T02:16:53.076Z,100397.52
2017-11-22T02:19:28.243Z,100400.15
2017-11-22T02:22:05.008Z,100391.89
2017-11-22T02:24:38.097Z,100390.44
2017-11-22T02:27:20.791Z,100392.60
2017-11-22T02:29:53.193Z,100391.15
2017-11-22T02:32:24.838Z,100394.21
2017-11-22T02:35:01.887Z,100395.92
2017-11-22T02:37:33.441Z,100388.91
2017-11-22T02:40:07.332Z,100391.77
2017-11-22T02:45:52.084Z,100379.84
2017-11-22T02:48:29.277Z,100377.84
2017-11-22T02:51:07.320Z,100373.39
2017-11-22T02:53:38.960Z,100365.70
2017-11-22T02:56:15.207Z,100366.48
2017-11-22T02:58:46.885Z,100373.54
2017-11-22T03:01:21.380Z,100372.34
2017-11-22T03:03:58.223Z,100379.84
2017-11-22T03:06:35.150Z,100376.94
2017-11-22T03:09:12.885Z,100386.94
2017-11-22T03:11:49.614Z,100386.88
2017-11-22T03:14:22.721Z,100379.91
2017-11-22T03:17:04.729Z,100376.76
2017-11-22T03:19:37.278Z,100374.94
2017-11-22T03:22:09.881Z,100380.53
2017-11-22T03:32:33.141Z,100384.91
2017-11-22T03:35:30.312Z,100371.97
2017-11-22T04:04:35.577Z,100372.34
2017-11-22T04:07:07.045Z,100376.16
2017-11-22T04:09:38.632Z,100374.39
2017-11-22T04:12:10.018Z,100372.86
2017-11-22T04:14:41.325Z,100367.84
2017-11-22T04:17:12.647Z,100362.45
2017-11-22T04:19:49.545Z,100360.16
2017-11-22T04:22:20.848Z,100351.87
2017-11-22T04:24:52.490Z,100341.52
2017-11-22T04:27:24.089Z,100346.00
2017-11-22T04:29:55.964Z,100343.89
2017-11-22T04:32:49.956Z,100349.39
2017-11-22T04:44:52.817Z,100340.59
2017-11-22T04:47:24.532Z,100333.42
2017-11-22T04:49:58.073Z,100324.52
2017-11-22T04:52:29.842Z,100321.09
2017-11-22T04:55:06.673Z,100317.39
2017-11-22T04:57:38.030Z,100320.30
2017-11-22T05:00:09.680Z,100316.84
2017-11-22T05:02:41.041Z,100316.70
2017-11-22T05:05:12.453Z,100312.17
2017-11-22T05:07:43.793Z,100311.16
2017-11-22T05:10:15.568Z,100311.64
2017-11-22T05:12:46.894Z,100313.38
2017-11-22T05:15:18.228Z,100315.17
2017-11-22T05:17:49.758Z,100314.80
2017-11-22T05:20:21.127Z,100317.01
2017-11-22T05:22:52.483Z,100305.48
2017-11-22T05:25:24.143Z,100316.31
2017-11-22T05:27:55.437Z,100322.32
2017-11-22T05:30:32.212Z,100323.66
2017-11-22T05:48:24.326Z,100329.30
2017-11-22T05:50:56.023Z,100322.73
2017-11-22T05:53:27.379Z,100325.25
2017-11-22T05:55:59.025Z,100322.91
2017-11-22T05:58:30.405Z,100320.54
2017-11-22T06:01:07.672Z,100323.38
2017-11-22T06:03:39.326Z,100321.39
2017-11-22T06:06:11.981Z,100319.38
2017-11-22T06:08:44.268Z,100319.47
2017-11-22T06:11:15.996Z,100316.05
2017-11-22T06:13:47.320Z,100322.07
2017-11-22T06:16:26.796Z,100314.20
2017-11-22T06:18:58.421Z,100314.59
2017-11-22T06:21:30.490Z,100322.48
2017-11-22T06:24:04.248Z,100325.41
2017-11-22T06:26:35.566Z,100321.93
2017-11-22T06:29:06.899Z,100320.67
2017-11-22T06:31:38.244Z,100323.49
2017-11-22T06:36:47.636Z,100322.44
2017-11-22T06:39:24.734Z,100322.89
2017-11-22T06:41:56.048Z,100320.28
2017-11-22T06:44:27.383Z,100326.03
2017-11-22T06:46:58.672Z,100326.62
2017-11-22T06:49:30.352Z,100321.48
2017-11-22T06:52:03.710Z,100307.38
2017-11-22T06:54:35.450Z,100312.16
2017-11-22T06:57:06.765Z,100309.91
2017-11-22T06:59:38.085Z,100305.41
2017-11-22T07:02:17.475Z,100308.36
2017-11-22T07:04:48.868Z,100311.67
2017-11-22T07:07:21.248Z,100316.34
2017-11-22T07:09:53.177Z,100306.17
2017-11-22T07:12:25.034Z,100314.11
2017-11-22T07:14:56.359Z,100312.73
2017-11-22T07:17:31.708Z,100316.62
2017-11-22T07:20:04.638Z,100312.32
2017-11-22T07:22:38.008Z,100310.04
2017-11-22T07:25:09.601Z,100306.27
2017-11-22T07:27:41.046Z,100309.39
2017-11-22T07:30:15.369Z,100306.55
2017-11-22T07:36:04.161Z,100288.53
2017-11-22T07:38:36.649Z,100285.43
2017-11-22T07:41:09.705Z,100291.29
2017-11-22T07:43:42.212Z,100280.77
2017-11-22T07:46:15.478Z,100278.13
2017-11-22T07:48:46.813Z,100280.57
2017-11-22T07:51:23.713Z,100280.84
2017-11-22T07:53:55.217Z,100271.20
2017-11-22T07:56:27.663Z,100272.64
2017-11-22T07:59:04.187Z,100277.45
2017-11-22T08:01:35.592Z,100288.95
2017-11-22T08:04:13.778Z,100289.56
2017-11-22T08:06:45.244Z,100287.23
2017-11-22T08:09:34.830Z,100281.00
2017-11-22T08:12:12.111Z,100284.13
2017-11-22T08:14:52.656Z,100283.89
2017-11-22T08:17:25.164Z,100284.67
2017-11-22T08:19:56.575Z,100289.24
2017-11-22T08:22:29.418Z,100281.33
2017-11-22T08:25:08.598Z,100283.66
2017-11-22T08:27:40.015Z,100289.14
2017-11-22T08:30:13.233Z,100287.05
2017-11-22T08:33:03.806Z,100285.41
2017-11-22T08:35:35.123Z,100289.97
2017-11-22T08:38:15.477Z,100289.85
2017-11-22T08:40:46.863Z,100303.74
2017-11-22T08:43:23.398Z,100292.48
2017-11-22T08:45:57.694Z,100288.05
2017-11-22T08:48:29.061Z,100287.36
2017-11-22T08:51:02.040Z,100287.70
2017-11-22T08:53:34.584Z,100281.66
2017-11-22T08:56:21.415Z,100280.47
2017-11-22T08:58:52.764Z,100280.24
2017-11-22T09:01:25.933Z,100271.30
2017-11-22T09:03:57.262Z,100279.00
2017-11-22T09:06:31.256Z,100282.23
2017-11-22T09:09:03.327Z,100277.66
2017-11-22T09:11:34.991Z,100274.50
2017-11-22T09:14:07.392Z,100269.64
2017-11-22T09:16:39.070Z,100264.93
2017-11-22T09:19:12.209Z,100261.59
2017-11-22T09:21:43.591Z,100251.50
2017-11-22T09:25:06.609Z,100247.66
2017-11-22T09:27:44.114Z,100240.45
2017-11-22T09:30:18.780Z,100244.93
2017-11-22T09:32:52.871Z,100246.41
2017-11-22T09:35:24.171Z,100253.66
2017-11-22T09:37:55.513Z,100243.98
2017-11-22T09:40:27.123Z,100245.16
2017-11-22T09:42:58.439Z,100243.69
2017-11-22T09:45:30.077Z,100238.36
2017-11-22T09:48:16.939Z,100245.80
2017-11-22T09:50:48.352Z,100242.98
2017-11-22T09:53:26.180Z,100241.41
2017-11-22T09:55:57.504Z,100246.63
2017-11-22T09:58:30.160Z,100240.47
2017-11-22T10:01:01.882Z,100241.22
2017-11-22T10:03:33.250Z,100241.90
2017-11-22T10:06:08.142Z,100237.34
2017-11-22T10:08:39.501Z,100246.41
2017-11-22T10:11:11.464Z,100242.87
2017-11-22T10:13:45.514Z,100244.17
2017-11-22T10:16:25.957Z,100237.80
2017-11-22T10:19:02.198Z,100242.00
2017-11-22T10:21:37.879Z,100231.91
2017-11-22T10:24:14.560Z,100223.33
2017-11-22T10:26:50.873Z,100228.55
2017-11-22T10:29:24.323Z,100227.55
2017-11-22T10:32:00.046Z,100230.23
2017-11-22T10:34:31.576Z,100217.26
2017-11-22T10:37:03.258Z,100216.34
2017-11-22T10:39:36.430Z,100218.87
2017-11-22T10:42:12.230Z,100224.14
2017-11-22T10:44:43.652Z,100216.81
2017-11-22T10:47:15.802Z,100217.78
2017-11-22T10:49:47.137Z,100225.66
2017-11-22T10:52:23.206Z,100221.68
2017-11-22T10:54:54.518Z,100231.39
2017-11-22T10:57:26.956Z,100214.20
2017-11-22T10:59:59.155Z,100210.91
2017-11-22T11:02:33.403Z,100224.55
2017-11-22T11:05:05.585Z,100221.56
2017-11-22T11:07:36.925Z,100219.44
2017-11-22T11:10:12.483Z,100218.80
2017-11-22T11:12:43.860Z,100207.13
2017-11-22T11:15:17.767Z,100207.08
2017-11-22T11:17:50.502Z,100213.94
2017-11-22T11:20:23.085Z,100207.50
2017-11-22T11:22:54.410Z,100206.16
2017-11-22T11:25:27.868Z,100213.69
2017-11-22T11:27:59.219Z,100194.28
2017-11-22T11:30:31.319Z,100193.00
2017-11-22T11:33:05.352Z,100192.94
2017-11-22T11:35:45.840Z,100198.67
2017-11-22T11:38:18.275Z,100196.63
2017-11-22T11:40:50.949Z,100195.44
2017-11-22T11:43:22.318Z,100207.14
2017-11-22T11:45:53.736Z,100198.80
2017-11-22T11:48:25.316Z,100198.75
2017-11-22T11:53:39.780Z,100188.98
2017-11-22T11:56:17.407Z,100185.37
2017-11-22T11:58:49.333Z,100183.13
2017-11-22T12:01:21.719Z,100182.25
2017-11-22T12:03:54.087Z,100174.23
2017-11-22T12:06:26.719Z,100166.34
2017-11-22T12:08:58.404Z,100160.76
2017-11-22T12:11:29.774Z,100166.84
2017-11-22T12:14:26.829Z,100143.61
2017-11-22T12:16:58.172Z,100153.95
2017-11-22T12:19:29.548Z,100147.98
2017-11-22T12:25:16.811Z,100129.45
2017-11-22T12:27:48.424Z,100126.04
2017-11-22T12:30:21.312Z,100131.45
2017-11-22T12:32:53.708Z,100115.56
2017-11-22T12:35:26.655Z,100129.98
2017-11-22T12:37:58.911Z,100127.73
2017-11-22T12:40:30.313Z,100127.85
2017-11-22T12:43:02.247Z,100129.77
2017-11-22T12:45:35.744Z,100132.25
2017-11-22T12:48:09.784Z,100136.64
2017-11-22T12:50:43.574Z,100139.52
2017-11-22T12:53:16.383Z,100140.17
2017-11-22T12:55:48.167Z,100137.95
2017-11-22T12:58:21.750Z,100136.88
2017-11-22T13:00:53.855Z,100136.91
2017-11-22T13:03:27.857Z,100134.73
2017-11-22T13:06:00.293Z,100134.86
2017-11-22T13:08:31.683Z,100129.76
2017-11-22T13:12:14.207Z,100134.34
2017-11-22T13:14:45.577Z,100129.16
2017-11-22T13:21:09.009Z,100119.36
2017-11-22T13:23:42.730Z,100118.00
2017-11-22T13:26:21.260Z,100116.70
2017-11-22T13:28:52.638Z,100114.49
2017-11-22T13:31:24.009Z,100115.55
2017-11-22T13:34:16.518Z,100111.80
2017-11-22T13:39:44.847Z,100111.52
2017-11-22T13:42:18.280Z,100108.60
2017-11-22T13:44:50.177Z,100103.06
2017-11-22T13:47:21.944Z,100104.36
2017-11-22T13:49:53.390Z,100100.73
2017-11-22T13:52:25.684Z,100088.88
2017-11-22T13:54:57.714Z,100091.50
2017-11-22T13:57:29.069Z,100087.13
2017-11-22T14:00:00.728Z,100084.61
2017-11-22T14:02:32.931Z,100087.94
2017-11-22T14:05:04.904Z,100094.52
2017-11-22T14:07:37.433Z,100088.59
2017-11-22T14:10:14.409Z,100084.52
2017-11-22T14:12:46.786Z,100086.76
2017-11-22T14:15:20.074Z,100088.98
2017-11-22T14:17:51.531Z,100083.81
2017-11-22T14:20:23.138Z,100078.56
2017-11-22T14:22:54.569Z,100081.05
2017-11-22T14:25:29.176Z,100087.77
2017-11-22T14:28:05.870Z,100073.32
2017-11-22T14:30:39.568Z,100075.07
2017-11-22T14:33:11.287Z,100077.34
2017-11-22T14:35:42.702Z,100078.29
2017-11-22T14:38:15.566Z,100071.25
2017-11-22T14:40:48.615Z,100071.50
2017-11-22T14:43:21.344Z,100073.95
2017-11-22T14:45:52.844Z,100074.30
2017-11-22T14:48:24.189Z,100074.17
2017-11-22T14:50:56.437Z,100066.16
2017-11-22T14:53:28.558Z,100068.80
2017-11-22T14:55:59.992Z,100072.16
2017-11-22T14:58:32.324Z,100073.66
2017-11-22T15:01:04.149Z,100067.08
2017-11-22T15:03:35.642Z,100066.12
2017-11-22T15:06:10.041Z,100071.11
2017-11-22T15:13:46.597Z,100073.02
2017-11-22T15:16:22.053Z,100072.69
2017-11-22T15:24:42.387Z,100065.76
2017-11-22T15:27:14.736Z,100057.73
2017-11-22T15:29:46.730Z,100061.97
2017-11-22T15:32:22.491Z,100064.16
2017-11-22T15:34:53.923Z,100056.27
2017-11-22T15:40:24.805Z,100063.04
2017-11-22T15:42:56.997Z,100058.42
2017-11-22T15:45:28.415Z,100054.30
2017-11-22T15:48:01.166Z,100053.56
2017-11-22T15:50:37.195Z,100059.56
2017-11-22T15:53:08.551Z,100057.91
2017-11-22T15:55:40.813Z,100057.89
2017-11-22T15:58:22.231Z,100052.47
2017-11-22T16:00:53.692Z,100048.06
2017-11-22T16:03:25.052Z,100045.56
2017-11-22T16:05:56.747Z,100046.97
2017-11-22T16:08:28.133Z,100044.11
2017-11-22T16:11:00.828Z,100042.61
2017-11-22T16:13:32.503Z,100038.78
2017-11-22T16:16:04.965Z,100034.03
2017-11-22T16:18:37.326Z,100028.31
2017-11-22T16:21:37.490Z,100028.01
2017-11-22T16:24:12.015Z,100031.25
2017-11-22T16:26:43.349Z,100030.22
2017-11-22T16:35:15.078Z,100021.52
2017-11-22T16:37:47.239Z,100029.44
2017-11-22T16:43:22.575Z,100023.33
2017-11-22T16:45:53.951Z,100020.73
2017-11-22T16:48:26.815Z,100020.01
2017-11-22T16:51:00.505Z,100020.51
2017-11-22T16:53:34.585Z,100015.73
2017-11-22T16:56:16.373Z,100014.00
2017-11-22T16:58:48.767Z,100012.08
2017-11-22T17:01:20.109Z,100010.36
2017-11-22T17:03:52.049Z,100013.02
2017-11-22T17:06:24.358Z,100011.85
2017-11-22T17:14:46.707Z,100021.44
2017-11-22T17:17:20.828Z,100019.95
2017-11-22T17:19:53.231Z,100015.55
2017-11-22T17:22:26.596Z,100017.79
2017-11-22T17:24:58.286Z,100013.77
2017-11-22T17:27:32.727Z,100017.89
2017-11-22T17:30:15.331Z,100004.56
2017-11-22T17:32:46.775Z,100011.33
2017-11-22T17:35:19.495Z,100000.84
2017-11-22T17:37:51.703Z,100006.45
2017-11-22T17:40:26.060Z,100001.70
2017-11-22T17:42:57.458Z,100003.47
2017-11-22T17:45:30.057Z,100000.30
2017-11-22T17:48:04.542Z,100000.16
2017-11-22T17:50:37.848Z,99998.98
2017-11-22T17:53:11.113Z,99989.64
2017-11-22T17:55:42.582Z,99991.20
2017-11-22T18:00:53.877Z,99983.19
2017-11-22T18:03:29.553Z,99982.02
2017-11-22T18:06:01.098Z,99987.97
2017-11-22T18:08:33.600Z,99978.62
2017-11-22T18:11:06.996Z,99971.83
2017-11-22T18:13:41.274Z,99974.73
2017-11-22T18:16:22.709Z,99970.82
2017-11-22T18:18:54.600Z,99974.22
2017-11-22T18:21:27.709Z,99968.21
2017-11-22T18:23:59.174Z,99968.21
2017-11-22T18:26:30.830Z,99966.59
2017-11-22T18:29:03.057Z,99968.64
2017-11-22T18:31:36.884Z,99963.95
2017-11-22T18:34:18.719Z,99962.87
2017-11-22T18:36:50.092Z,99959.66
2017-11-22T18:39:21.907Z,99956.61
2017-11-22T18:41:53.543Z,99958.45
2017-11-22T18:44:26.527Z,99950.28
2017-11-22T18:46:57.929Z,99948.83
2017-11-22T18:49:30.296Z,99954.06
2017-11-22T18:52:05.345Z,99955.08
2017-11-22T18:54:38.181Z,99950.92
2017-11-22T18:57:11.132Z,99953.60
2017-11-22T18:59:46.057Z,99947.34
2017-11-22T19:02:20.799Z,99952.50
2017-11-22T19:04:52.131Z,99940.30
2017-11-22T19:10:04.024Z,99938.47
2017-11-22T19:12:35.421Z,99934.41
2017-11-22T19:15:09.097Z,99935.39
2017-11-22T19:17:40.432Z,99939.52
2017-11-22T19:22:55.669Z,99933.88
2017-11-22T19:25:27.390Z,99936.27
2017-11-22T19:28:00.660Z,99932.63
2017-11-22T19:30:33.753Z,99931.72
2017-11-22T19:33:05.451Z,99929.09
2017-11-22T19:35:37.563Z,99934.17
2017-11-22T19:38:20.990Z,99933.68
2017-11-22T19:40:52.379Z,99933.75
2017-11-22T19:43:24.296Z,99933.70
2017-11-22T19:45:56.608Z,99926.55
2017-11-22T19:48:30.186Z,99925.02
2017-11-22T19:51:01.920Z,99917.18
2017-11-22T19:53:34.456Z,99915.10
2017-11-22T19:56:10.858Z,99917.79
2017-11-22T19:58:43.632Z,99914.14
2017-11-22T20:01:17.830Z,99908.51
2017-11-22T20:03:50.033Z,99912.79
2017-11-22T20:06:23.196Z,99902.20
2017-11-22T20:08:59.262Z,99896.97
2017-11-22T20:11:31.233Z,99894.02
2017-11-22T20:14:04.487Z,99889.23
2017-11-22T20:16:36.778Z,99895.56
2017-11-22T20:19:09.073Z,99893.97
2017-11-22T20:21:41.298Z,99881.91
2017-11-22T20:24:26.461Z,99876.92
2017-11-22T20:27:01.650Z,99875.09
2017-11-22T20:29:33.000Z,99875.26
2017-11-22T20:32:11.774Z,99875.36
2017-11-22T20:34:44.595Z,99880.80
2017-11-22T20:37:18.520Z,99883.98
2017-11-22T20:39:50.738Z,99893.64
2017-11-22T20:42:24.380Z,99885.77
2017-11-22T20:44:56.609Z,99887.91
2017-11-22T20:47:28.049Z,99875.79
2017-11-22T20:49:59.534Z,99876.65
2017-11-22T20:52:31.528Z,99870.33
2017-11-22T20:55:03.543Z,99862.86
2017-11-22T20:57:36.007Z,99863.22
2017-11-22T21:00:10.080Z,99853.22
2017-11-22T21:02:43.865Z,99860.07
2017-11-22T21:05:16.842Z,99859.45
2017-11-22T21:07:49.069Z,99866.79
2017-11-22T21:10:24.364Z,99863.15
2017-11-22T21:12:55.719Z,99874.88
2017-11-22T21:15:27.108Z,99871.52
2017-11-22T21:17:59.107Z,99868.17
2017-11-22T21:20:30.630Z,99864.92
2017-11-22T21:23:03.619Z,99867.91
2017-11-22T21:25:35.833Z,99869.28
2017-11-22T21:28:13.723Z,99865.22
2017-11-22T21:30:46.258Z,99862.92
2017-11-22T21:33:18.604Z,99863.87
2017-11-22T21:35:50.257Z,99860.95
2017-11-22T21:38:23.092Z,99861.69
2017-11-22T21:40:55.034Z,99860.62
2017-11-22T21:43:26.455Z,99854.36
2017-11-22T21:45:57.982Z,99846.28
2017-11-22T21:49:32.214Z,99840.87
2017-11-22T21:52:06.082Z,99840.06
2017-11-22T21:54:38.268Z,99839.13
2017-11-22T21:57:12.698Z,99854.25
2017-11-22T21:59:46.008Z,99852.23
2017-11-22T22:02:22.805Z,99854.02
2017-11-22T22:04:54.476Z,99851.73
2017-11-22T22:07:34.054Z,99854.27
2017-11-22T22:10:08.092Z,99853.29
2017-11-22T22:12:41.427Z,99852.28
2017-11-22T22:15:12.924Z,99856.80
2017-11-22T22:17:44.454Z,99859.67
2017-11-22T22:20:22.602Z,99848.23
2017-11-22T22:22:54.065Z,99845.46
2017-11-22T22:25:25.569Z,99848.12
2017-11-22T22:27:56.978Z,99853.76
2017-11-22T22:30:28.469Z,99856.31
2017-11-22T22:32:59.882Z,99861.66
2017-11-22T22:35:31.890Z,99855.98
2017-11-22T22:38:07.206Z,99867.38
2017-11-22T22:40:39.491Z,99877.58
2017-11-22T22:43:12.720Z,99881.74
2017-11-22T22:45:44.032Z,99881.25
2017-11-22T22:48:20.954Z,99885.58
2017-11-22T22:50:52.460Z,99886.13
2017-11-22T22:53:25.905Z,99886.52
2017-11-22T22:55:57.592Z,99893.30
2017-11-22T22:58:29.619Z,99890.51
2017-11-22T23:01:01.259Z,99891.72
2017-11-22T23:03:33.132Z,99890.54
2017-11-22T23:06:10.156Z,99877.89
2017-11-22T23:08:41.543Z,99877.98
2017-11-22T23:11:14.851Z,99881.44
2017-11-22T23:13:46.213Z,99876.06
2017-11-22T23:16:20.372Z,99869.02
2017-11-22T23:18:52.157Z,99873.34
2017-11-22T23:21:23.796Z,99864.84
2017-11-22T23:23:55.198Z,99868.44
2017-11-22T23:26:26.723Z,99863.94
2017-11-22T23:28:58.390Z,99866.81
2017-11-22T23:31:29.769Z,99863.89
2017-11-22T23:34:01.214Z,99873.22
2017-11-22T23:36:34.250Z,99868.96
2017-11-22T23:39:07.361Z,99865.34
2017-11-22T23:41:38.767Z,99859.54
2017-11-22T23:44:12.247Z,99860.91
2017-11-22T23:46:44.729Z,99863.73
2017-11-22T23:49:16.210Z,99865.38
2017-11-22T23:51:48.808Z,99857.30
2017-11-22T23:54:21.277Z,99859.11
2017-11-22T23:56:52.679Z,99863.02
2017-11-22T23:59:26.553Z,99855.92
